Time;durP1;ratioP1;P1;durP2;ratioP2;P2;SDS_P1;SDS_P2;PMS_P1;PMS_P2;Temp;Humidity;BMP_temperature;BMP_pressure;BME280_temperature;BME280_humidity;BME280_pressure;Samples;Min_cycle;Max_cycle;Signal;HPM_P1;HPM_P2
2023/01/27 00:09:42;;;;;;;21.92;9.63;;;-5.10;99.90;;;;;;20901443;28;20044;-55
2023/01/27 00:19:44;;;;;;;35.28;14.30;;;-5.10;99.90;;;;;;20903138;28;20481;-55
2023/01/27 00:29:46;;;;;;;32.65;14.43;;;-5.00;99.90;;;;;;20901733;28;20446;-55
2023/01/27 00:39:48;;;;;;;28.15;11.32;;;-5.10;99.90;;;;;;20882751;28;20398;-55
2023/01/27 00:49:50;;;;;;;34.05;13.27;;;-5.50;99.90;;;;;;20883095;28;20804;-55
2023/01/27 00:59:52;;;;;;;43.00;16.65;;;-5.30;99.90;;;;;;20901287;28;20095;-54
2023/01/27 01:09:53;;;;;;;37.03;14.80;;;-5.00;99.90;;;;;;20914125;28;20390;-55
2023/01/27 01:19:56;;;;;;;31.15;12.55;;;-4.90;99.90;;;;;;20910502;28;20386;-55
2023/01/27 01:30:00;;;;;;;33.90;13.70;;;-5.30;99.90;;;;;;20911908;28;20029;-54
2023/01/27 01:40:01;;;;;;;37.75;13.88;;;-5.10;99.90;;;;;;20911782;28;20033;-55
2023/01/27 01:50:04;;;;;;;32.50;12.68;;;-4.90;99.90;;;;;;20909665;28;20436;-54
2023/01/27 02:00:07;;;;;;;25.52;10.20;;;-5.30;99.90;;;;;;20911212;28;20045;-53
2023/01/27 02:10:17;;;;;;;29.48;11.45;;;-5.40;99.90;;;;;;20909546;28;20033;-54
2023/01/27 02:20:38;;;;;;;29.42;11.52;;;-5.30;99.90;;;;;;20908544;28;20470;-55
2023/01/27 02:30:40;;;;;;;38.60;14.53;;;-5.40;99.90;;;;;;20906414;28;20056;-56
2023/01/27 02:40:42;;;;;;;28.58;11.95;;;-5.70;99.90;;;;;;20889487;28;20343;-54
2023/01/27 02:50:44;;;;;;;28.90;12.65;;;-5.80;99.90;;;;;;20888169;28;20025;-54
2023/01/27 03:00:46;;;;;;;32.55;12.07;;;-5.60;99.90;;;;;;20904988;28;20033;-54
2023/01/27 03:10:52;;;;;;;32.92;12.77;;;-5.60;99.90;;;;;;20903429;28;20041;-55
2023/01/27 03:21:01;;;;;;;35.25;14.00;;;-5.50;99.90;;;;;;20885999;28;20490;-55
2023/01/27 03:31:18;;;;;;;27.95;12.68;;;-5.20;99.90;;;;;;20902148;28;20021;-55
2023/01/27 03:51:52;;;;;;;30.63;14.05;;;-5.10;99.90;;;;;;20884287;28;20032;-55
2023/01/27 04:12:14;;;;;;;27.70;11.27;;;-5.20;99.90;;;;;;20897726;28;20033;-55
2023/01/27 04:22:16;;;;;;;33.42;12.43;;;-5.40;99.90;;;;;;20901157;28;20037;-55
2023/01/27 04:32:17;;;;;;;32.10;13.35;;;-5.70;99.90;;;;;;20900508;28;20047;-55
2023/01/27 04:42:19;;;;;;;28.73;12.32;;;-6.00;99.90;;;;;;20912784;28;20025;-56
2023/01/27 04:52:21;;;;;;;30.17;12.32;;;-6.30;99.90;;;;;;20915753;28;20108;-55
2023/01/27 05:02:25;;;;;;;28.20;10.98;;;-6.50;99.90;;;;;;20914386;28;20049;-55
2023/01/27 05:12:26;;;;;;;32.05;11.27;;;-6.50;99.90;;;;;;20913829;28;20064;-55
2023/01/27 05:22:28;;;;;;;27.45;11.90;;;-6.40;99.90;;;;;;20913239;28;20033;-55
2023/01/27 05:32:31;;;;;;;31.80;12.55;;;-6.30;99.90;;;;;;20908413;28;20049;-56
2023/01/27 05:42:32;;;;;;;31.15;12.30;;;-6.00;99.90;;;;;;20911231;28;20549;-54
2023/01/27 05:52:34;;;;;;;26.55;12.55;;;-5.80;99.90;;;;;;20910414;28;20029;-56
2023/01/27 06:02:36;;;;;;;22.08;10.43;;;-5.50;99.90;;;;;;20906930;28;20041;-56
2023/01/27 06:12:37;;;;;;;25.42;11.55;;;-5.50;99.90;;;;;;20908137;28;20083;-56
2023/01/27 06:22:39;;;;;;;24.45;11.35;;;-5.70;99.90;;;;;;20907807;28;20615;-56
2023/01/27 06:32:41;;;;;;;27.70;12.10;;;-6.10;99.90;;;;;;20905464;28;20041;-53
2023/01/27 06:42:43;;;;;;;24.63;11.88;;;-6.50;99.90;;;;;;20902538;28;20029;-54
2023/01/27 06:52:44;;;;;;;30.33;11.85;;;-6.90;99.90;;;;;;20888536;28;20553;-55
2023/01/27 07:02:46;;;;;;;27.00;11.35;;;-7.10;99.90;;;;;;20904402;28;20072;-56
2023/01/27 07:12:48;;;;;;;27.30;11.07;;;-7.20;99.90;;;;;;20904501;28;20453;-55
2023/01/27 07:22:50;;;;;;;25.70;10.10;;;-7.20;99.90;;;;;;20904065;28;20087;-56
2023/01/27 07:32:53;;;;;;;23.83;10.63;;;-7.30;99.90;;;;;;20898566;28;20029;-54
2023/01/27 07:42:58;;;;;;;21.58;9.95;;;-7.30;99.90;;;;;;20902135;28;20036;-56
2023/01/27 07:53:03;;;;;;;21.20;8.88;;;-7.30;99.90;;;;;;20884972;28;20544;-54
2023/01/27 08:03:04;;;;;;;31.27;12.15;;;-7.20;99.90;;;;;;20901702;28;20040;-55
2023/01/27 08:13:06;;;;;;;26.05;10.73;;;-6.80;99.90;;;;;;20887987;28;20032;-55
2023/01/27 08:23:08;;;;;;;29.35;11.38;;;-6.20;99.90;;;;;;20913260;28;20551;-56
2023/01/27 08:33:09;;;;;;;26.42;12.07;;;-5.60;99.90;;;;;;20917093;28;20413;-56
2023/01/27 08:43:12;;;;;;;23.00;11.48;;;-4.60;99.90;;;;;;20917357;28;20036;-56
2023/01/27 08:53:14;;;;;;;23.52;12.13;;;-4.10;99.90;;;;;;20915752;28;20052;-55
2023/01/27 09:03:16;;;;;;;24.33;11.10;;;-3.20;99.90;;;;;;20914262;28;20049;-54
2023/01/27 09:13:21;;;;;;;21.83;10.88;;;-2.30;99.90;;;;;;20913684;28;20033;-56
2023/01/27 09:23:22;;;;;;;21.67;10.10;;;-1.80;99.90;;;;;;20910651;28;20029;-56
2023/01/27 09:33:25;;;;;;;24.15;12.38;;;-1.50;99.90;;;;;;20908784;28;20040;-54
2023/01/27 09:43:47;;;;;;;24.88;13.10;;;-1.30;99.90;;;;;;20911611;28;20477;-55
2023/01/27 09:54:06;;;;;;;23.92;12.98;;;-1.00;99.90;;;;;;20908899;28;20508;-56
2023/01/27 10:04:16;;;;;;;24.63;12.98;;;-0.60;99.90;;;;;;20909730;28;20086;-54
2023/01/27 10:14:30;;;;;;;23.23;12.55;;;0.40;99.90;;;;;;20909093;28;20044;-56
2023/01/27 10:24:39;;;;;;;21.83;11.93;;;1.30;99.90;;;;;;20905975;28;20036;-55
2023/01/27 10:35:04;;;;;;;18.85;11.57;;;1.10;99.90;;;;;;20903733;28;20672;-56
2023/01/27 10:45:36;;;;;;;20.45;10.35;;;0.50;99.90;;;;;;20906213;28;20044;-55
2023/01/27 10:55:41;;;;;;;16.67;9.20;;;-0.20;99.90;;;;;;20903431;28;20655;-55
2023/01/27 11:05:54;;;;;;;18.92;8.63;;;-0.50;99.90;;;;;;20901838;28;20363;-50
2023/01/27 11:15:57;;;;;;;17.35;8.68;;;-0.50;99.90;;;;;;20902359;28;20118;-56
2023/01/27 11:26:39;;;;;;;17.33;9.20;;;-0.50;99.90;;;;;;20903787;28;20321;-54
2023/01/27 11:36:40;;;;;;;16.75;8.65;;;-0.50;99.90;;;;;;20647994;28;20174;-55
2023/01/27 11:46:43;;;;;;;18.10;9.25;;;-0.40;99.90;;;;;;20646950;28;20511;-56
2023/01/27 11:56:47;;;;;;;17.58;8.35;;;-0.10;99.90;;;;;;20643493;28;20046;-55
2023/01/27 12:07:01;;;;;;;17.60;9.18;;;0.30;99.90;;;;;;20854324;28;20110;-56
2023/01/27 12:17:05;;;;;;;16.20;9.10;;;0.10;99.90;;;;;;20898286;28;20033;-56
2023/01/27 12:27:19;;;;;;;20.35;9.40;;;-0.10;99.90;;;;;;20900723;28;20040;-55
2023/01/27 12:37:32;;;;;;;18.10;8.95;;;-0.10;99.90;;;;;;20899771;28;20029;-56
2023/01/27 12:47:34;;;;;;;19.63;8.82;;;-0.20;99.90;;;;;;20898685;28;20024;-56
2023/01/27 12:57:42;;;;;;;21.08;9.85;;;-0.50;99.90;;;;;;20903039;28;20034;-55
2023/01/27 13:07:50;;;;;;;18.02;9.50;;;-0.80;99.90;;;;;;20915100;28;20033;-56
2023/01/27 13:18:10;;;;;;;17.67;8.77;;;-1.10;99.90;;;;;;20913864;28;20041;-54
2023/01/27 13:28:20;;;;;;;16.17;8.18;;;-1.40;99.90;;;;;;20911772;28;20068;-56
2023/01/27 13:38:29;;;;;;;14.90;8.20;;;-1.40;99.90;;;;;;20910081;28;20054;-55
2023/01/27 13:48:36;;;;;;;16.30;8.98;;;-1.30;99.90;;;;;;20909261;28;20536;-55
2023/01/27 13:58:56;;;;;;;17.42;8.70;;;-1.10;99.90;;;;;;20909747;28;20041;-55
2023/01/27 14:09:28;;;;;;;15.30;7.53;;;-1.40;99.90;;;;;;20887196;28;20033;-54
2023/01/27 14:19:46;;;;;;;19.65;8.98;;;-1.70;99.90;;;;;;20907199;28;20425;-53
2023/01/27 14:29:56;;;;;;;18.15;9.38;;;-1.00;99.90;;;;;;20908368;28;20531;-55
2023/01/27 14:40:20;;;;;;;20.88;9.57;;;-0.40;99.90;;;;;;20905640;28;20548;-54
2023/01/27 14:50:53;;;;;;;18.77;9.48;;;-1.30;99.90;;;;;;20905150;28;20025;-55
2023/01/27 15:01:00;;;;;;;17.42;8.30;;;-2.40;99.90;;;;;;20905452;28;20072;-54
2023/01/27 15:11:23;;;;;;;18.50;9.15;;;-3.20;99.90;;;;;;20905427;28;20111;-53
2023/01/27 15:21:59;;;;;;;21.55;8.95;;;-4.00;99.90;;;;;;20897445;28;20428;-56
2023/01/27 15:32:16;;;;;;;17.98;8.23;;;-4.40;99.90;;;;;;20891597;28;20048;-57
2023/01/27 15:42:24;;;;;;;19.45;8.15;;;-4.80;99.90;;;;;;20890469;28;20159;-53
2023/01/27 15:52:29;;;;;;;15.82;7.57;;;-5.10;99.90;;;;;;20892686;28;20048;-54
2023/01/27 16:02:31;;;;;;;17.90;7.00;;;-5.40;99.90;;;;;;20891610;28;20052;-56
2023/01/27 16:12:46;;;;;;;18.00;7.13;;;-5.80;99.90;;;;;;20901179;28;20075;-55
2023/01/27 16:23:07;;;;;;;17.98;7.80;;;-6.30;99.90;;;;;;20900789;28;20029;-55
2023/01/27 16:33:23;;;;;;;17.77;7.63;;;-6.60;99.90;;;;;;20905292;28;20379;-54
2023/01/27 16:43:31;;;;;;;17.58;7.20;;;-7.00;99.90;;;;;;20913489;28;20037;-54
2023/01/27 16:53:33;;;;;;;17.30;7.38;;;-7.20;99.90;;;;;;20914194;28;20025;-54
2023/01/27 17:03:38;;;;;;;19.80;8.68;;;-7.30;99.90;;;;;;20914625;28;20445;-56
2023/01/27 17:14:09;;;;;;;22.53;7.90;;;-7.50;99.90;;;;;;20912991;28;20040;-54
2023/01/27 17:24:33;;;;;;;18.00;7.73;;;-7.60;99.90;;;;;;20911921;28;20049;-52
2023/01/27 17:34:39;;;;;;;14.27;6.97;;;-7.80;99.90;;;;;;20909633;28;20062;-55
2023/01/27 17:44:41;;;;;;;20.27;8.90;;;-7.70;99.90;;;;;;20909795;28;20112;-54
2023/01/27 17:54:45;;;;;;;20.55;7.78;;;-7.60;99.90;;;;;;20909463;28;20444;-55
2023/01/27 18:04:48;;;;;;;16.35;6.85;;;-7.40;99.90;;;;;;20910508;28;20395;-54
2023/01/27 18:14:50;;;;;;;19.92;8.45;;;-7.20;99.90;;;;;;20909099;28;20033;-56
2023/01/27 18:24:55;;;;;;;15.75;7.95;;;-7.00;99.90;;;;;;20909048;28;20425;-55
2023/01/27 18:34:58;;;;;;;17.02;7.18;;;-6.90;99.90;;;;;;20907460;28;20037;-55
2023/01/27 18:45:00;;;;;;;15.40;6.68;;;-6.70;99.90;;;;;;20906885;28;20033;-57
2023/01/27 18:55:25;;;;;;;18.63;8.32;;;-6.50;99.90;;;;;;20905768;28;20087;-56
2023/01/27 19:05:31;;;;;;;20.95;8.73;;;-6.50;99.90;;;;;;20904068;28;20028;-54
2023/01/27 19:15:38;;;;;;;22.73;8.93;;;-6.70;99.90;;;;;;20904739;28;20076;-55
2023/01/27 19:25:40;;;;;;;25.48;9.68;;;-6.80;99.90;;;;;;20904358;28;20064;-54
2023/01/27 19:35:52;;;;;;;21.00;8.38;;;-6.80;99.90;;;;;;20902898;28;20040;-55
2023/01/27 19:45:53;;;;;;;23.85;9.50;;;-6.80;99.90;;;;;;20901162;28;20025;-56
2023/01/27 19:55:56;;;;;;;21.70;9.25;;;-6.80;99.90;;;;;;20903542;28;20059;-54
2023/01/27 20:05:58;;;;;;;25.55;9.90;;;-6.90;99.90;;;;;;20904429;28;20086;-56
2023/01/27 20:15:59;;;;;;;34.28;10.98;;;-7.00;99.90;;;;;;20918936;28;20029;-55
2023/01/27 20:26:02;;;;;;;23.13;9.65;;;-7.10;99.90;;;;;;20900693;28;20181;-54
2023/01/27 20:36:09;;;;;;;21.38;8.32;;;-7.30;99.90;;;;;;20899477;28;20060;-56
2023/01/27 20:46:14;;;;;;;25.02;9.40;;;-7.20;99.90;;;;;;20916180;28;20087;-55
2023/01/27 20:56:22;;;;;;;31.52;8.98;;;-7.00;99.90;;;;;;20914612;28;20041;-55
2023/01/27 21:06:24;;;;;;;20.90;8.38;;;-6.80;99.90;;;;;;20897136;28;20029;-54
2023/01/27 21:16:26;;;;;;;16.27;7.15;;;-6.80;99.90;;;;;;20912818;28;20029;-55
2023/01/27 21:26:28;;;;;;;16.17;7.35;;;-7.00;99.90;;;;;;20913824;28;20029;-55
2023/01/27 21:36:30;;;;;;;17.85;6.85;;;-7.30;99.90;;;;;;20910315;28;20482;-55
2023/01/27 21:46:32;;;;;;;17.30;7.70;;;-7.60;99.90;;;;;;20911810;28;20548;-55
2023/01/27 21:56:34;;;;;;;20.30;7.60;;;-7.80;99.90;;;;;;20910627;28;20095;-54
2023/01/27 22:06:36;;;;;;;19.60;7.80;;;-7.80;99.90;;;;;;20910401;28;20032;-53
2023/01/27 22:16:40;;;;;;;19.67;8.07;;;-7.80;99.90;;;;;;20910280;28;20037;-54
2023/01/27 22:26:41;;;;;;;19.63;8.40;;;-7.80;99.90;;;;;;20909888;28;20473;-54
2023/01/27 22:36:43;;;;;;;23.70;9.73;;;-7.90;99.90;;;;;;20904680;28;20036;-54
2023/01/27 22:46:48;;;;;;;23.15;8.63;;;-7.50;99.90;;;;;;20905729;28;20060;-55
2023/01/27 22:56:49;;;;;;;24.48;10.18;;;-7.10;99.90;;;;;;20905092;28;20037;-55
2023/01/27 23:06:51;;;;;;;23.38;9.93;;;-6.90;99.90;;;;;;20898672;28;20181;-54
2023/01/27 23:16:52;;;;;;;21.77;9.93;;;-6.80;99.90;;;;;;20904028;28;20033;-51
2023/01/27 23:26:54;;;;;;;22.92;9.23;;;-6.50;99.90;;;;;;20904092;28;20091;-54
2023/01/27 23:36:55;;;;;;;15.20;7.38;;;-6.30;99.90;;;;;;20900941;28;20033;-55
2023/01/27 23:46:57;;;;;;;16.35;7.13;;;-6.00;99.90;;;;;;20902205;28;20035;-54
2023/01/27 23:56:59;;;;;;;11.52;4.75;;;-5.50;99.90;;;;;;20902024;28;20036;-55
